Enter the Airport ICAO Code

Search by Airport or City

Current Weather

SCIE | Carriel Sur International Airport

Concepción, Chile

Last Update 27 Minutes Ago

Clear Sky

Temperature of 08 ºC

Light to Moderate Winds from SouthEast

Temperature

08 ºC

Dew Point Temperature

08 ºC

Relative Humidity

100 %

Wind Direction

SouthEast (150º, Without Significant Variations)

Wind Velocity

9 km/h (05 kt)

Gusts

None

Visibility

No Significant Reductions

Sea Level Pressure

1023 hPa (Hectopascals)

Layers of Clouds

None

METAR SCIE 191300Z 15005KT CAVOK 08/08 Q1023

Weather Forecast

SCIE | Carriel Sur International Airport

Concepción, Chile

Forecast valid for the next 23 Hours

From now on it is expected:

Clear Sky

Light Winds from South

In 1 to 3 hours it is expected the begining of:

Mostly Cloudy Sky

In 5 to 7 hours it is expected the begining of:

Moderate Winds from SouthWest

In 12 to 14 hours it is expected the begining of:

Light Winds from SouthWest

Maximum Temperature

14 ºC in 5 Hours

Minimum Temperature

05 ºC in 22 Hours

TAF SCIE 191000Z 1912/2012 16004KT CAVOK TX14/1918Z TN05/2011Z BECMG 1914/1916 9999 SCT030 BKN050 BECMG 1918/1920 23010KT BECMG 2001/2003 24003KT